This is the latest recevied weather packets stored in our database for station/object W9GWP. If no packets are shown the sender has not sent any weather packets the latest 10 day(s).
| Time | Temp. | Humidity | Pressure | Rain* | Wind** | Luminosity | Snow |
|---|---|---|---|---|---|---|---|
| 1778116123 | 8.89° C | 50% | 1043.7 hPa | 0 mm | - | 0 W/m² | - |
| 1778115219 | 8.89° C | 49% | 1043.4 hPa | 0 mm | - | 1 W/m² | - |
| 1778114316 | 9.44° C | 47% | 1043.3 hPa | 0 mm | - | 9 W/m² | - |
| 1778113415 | 10° C | 47% | 1043.5 hPa | 0 mm | - | 24 W/m² | - |
| 1778112511 | 10.56° C | 46% | 1043.1 hPa | 0 mm | - | 37 W/m² | - |
| 1778111606 | 10.56° C | 47% | 1043 hPa | 0 mm | - | 29 W/m² | - |
| 1778110704 | 10.56° C | 45% | 1042.8 hPa | 0 mm | - | 50 W/m² | - |
| 1778109804 | 11.11° C | 46% | 1042.6 hPa | 0 mm | - | 33 W/m² | - |
| 1778108902 | 11.67° C | 44% | 1042.8 hPa | 0 mm | - | 86 W/m² | - |
| 1778107998 | 11.11° C | 44% | 1042.4 hPa | 0 mm | - | 82 W/m² | - |
| 1778107094 | 11.67° C | 46% | 1042.6 hPa | 0 mm | - | 88 W/m² | - |
| 1778106194 | 11.11° C | 44% | 1042.4 hPa | 0 mm | - | 84 W/m² | - |
| 1778105293 | 11.67° C | 43% | 1042.1 hPa | 0 mm | - | 148 W/m² | - |
| 1778104392 | 11.67° C | 43% | 1042.1 hPa | 0 mm | - | 79 W/m² | - |
| 1778103490 | 12.22° C | 42% | 1042 hPa | 0 mm | - | 201 W/m² | - |
| 1778102585 | 12.22° C | 41% | 1041.9 hPa | 0 mm | - | 184 W/m² | - |
| 1778101680 | 12.78° C | 42% | 1041.8 hPa | 0 mm | - | 234 W/m² | - |
| 1778100775 | 12.78° C | 43% | 1041.9 hPa | 0 mm | - | 168 W/m² | - |
| 1778099874 | 12.78° C | 39% | 1041.9 hPa | 0 mm | - | 724 W/m² | - |
| 1778098971 | 12.22° C | 41% | 1041.9 hPa | 0 mm | - | 209 W/m² | - |
| 1778098067 | 12.78° C | 41% | 1042.3 hPa | 0 mm | - | 232 W/m² | - |
| 1778097168 | 12.78° C | 40% | 1042.2 hPa | 0 mm | - | 187 W/m² | - |
| 1778096266 | 12.22° C | 39% | 1042.2 hPa | 0 mm | - | 218 W/m² | - |
| 1778095361 | 12.22° C | 37% | 1042.3 hPa | 0 mm | - | 321 W/m² | - |
| 1778094458 | 12.22° C | 39% | 1042.1 hPa | 0 mm | - | 185 W/m² | - |
* Rain latest hour (hover to see other rain measurements)
** Current wind speed in m/s (hover to see current wind gust speed)